createdAt,value
2019-04-30T00:02:10.461Z,61.50
2019-04-30T00:04:45.233Z,61.00
2019-04-30T00:07:17.470Z,61.50
2019-04-30T00:09:49.341Z,61.50
2019-04-30T00:12:16.188Z,61.60
2019-04-30T00:14:45.392Z,61.30
2019-04-30T00:17:15.970Z,61.50
2019-04-30T00:19:45.889Z,61.80
2019-04-30T00:22:15.818Z,62.20
2019-04-30T00:24:49.717Z,61.40
2019-04-30T00:27:15.853Z,62.50
2019-04-30T00:29:45.759Z,62.70
2019-04-30T00:32:15.991Z,62.40
2019-04-30T00:34:45.621Z,62.80
2019-04-30T00:37:18.688Z,62.60
2019-04-30T00:39:50.881Z,62.80
2019-04-30T00:42:23.483Z,62.10
2019-04-30T00:44:47.498Z,62.70
2019-04-30T00:47:16.617Z,62.10
2019-04-30T00:49:47.241Z,62.50
2019-04-30T00:52:16.306Z,62.50
2019-04-30T00:54:45.494Z,62.20
2019-04-30T00:57:15.175Z,62.70
2019-04-30T00:59:47.865Z,62.70
2019-04-30T01:02:20.017Z,62.90
2019-04-30T01:04:49.162Z,63.00
2019-04-30T01:07:18.368Z,63.20
2019-04-30T01:09:49.830Z,62.80
2019-04-30T01:12:27.679Z,62.90
2019-04-30T01:14:49.784Z,63.20
2019-04-30T01:17:19.105Z,63.00
2019-04-30T01:19:51.177Z,63.00
2019-04-30T01:22:27.783Z,63.30
2019-04-30T01:24:50.118Z,63.80
2019-04-30T01:27:19.362Z,63.80
2019-04-30T01:29:48.785Z,63.80
2019-04-30T01:32:21.019Z,63.70
2019-04-30T01:34:52.551Z,63.90
2019-04-30T01:37:24.691Z,63.20
2019-04-30T01:39:50.416Z,64.00
2019-04-30T01:42:19.636Z,64.10
2019-04-30T01:44:53.593Z,64.00
2019-04-30T01:47:21.452Z,63.60
2019-04-30T01:49:50.579Z,63.90
2019-04-30T01:52:19.772Z,63.90
2019-04-30T01:54:49.094Z,63.60
2019-04-30T01:57:22.440Z,63.90
2019-04-30T02:00:09.723Z,63.70
2019-04-30T02:02:40.605Z,64.70
2019-04-30T02:05:09.798Z,64.20
2019-04-30T02:07:40.416Z,64.10
2019-04-30T02:10:09.588Z,63.90
2019-04-30T02:12:39.308Z,64.00
2019-04-30T02:15:09.520Z,64.70
2019-04-30T02:17:38.971Z,64.70
2019-04-30T02:20:08.896Z,63.90
2019-04-30T02:22:38.953Z,64.10
2019-04-30T02:25:09.599Z,64.80
2019-04-30T02:27:39.138Z,64.50
2019-04-30T02:30:11.205Z,65.10
2019-04-30T02:32:39.588Z,64.80
2019-04-30T02:35:16.376Z,64.40
2019-04-30T02:38:03.537Z,64.90
2019-04-30T02:40:32.747Z,65.10
2019-04-30T02:43:02.556Z,64.50
2019-04-30T02:45:31.810Z,64.60
2019-04-30T02:48:00.889Z,64.80
2019-04-30T02:50:30.205Z,64.90
2019-04-30T02:53:00.287Z,64.50
2019-04-30T02:55:44.019Z,65.20
2019-04-30T02:58:13.636Z,65.50
2019-04-30T03:00:42.813Z,65.00
2019-04-30T03:03:12.076Z,65.00
2019-04-30T03:05:41.279Z,65.00
2019-04-30T03:08:10.357Z,65.00
2019-04-30T03:10:40.257Z,64.80
2019-04-30T03:13:09.805Z,64.90
2019-04-30T03:15:39.563Z,65.10
2019-04-30T03:18:16.179Z,65.00
2019-04-30T03:20:52.517Z,65.70
2019-04-30T03:23:21.690Z,65.30
2019-04-30T03:25:50.992Z,65.20
2019-04-30T03:28:20.395Z,65.60
2019-04-30T03:30:51.900Z,65.50
2019-04-30T03:33:22.804Z,64.80
2019-04-30T03:35:54.372Z,65.50
2019-04-30T03:38:21.745Z,65.40
2019-04-30T03:40:50.766Z,64.80
2019-04-30T03:43:20.213Z,65.20
2019-04-30T03:45:50.061Z,65.10
2019-04-30T03:48:20.097Z,65.00
2019-04-30T03:50:56.345Z,65.10
2019-04-30T03:53:20.408Z,65.50
2019-04-30T03:55:50.569Z,65.60
2019-04-30T03:58:21.413Z,66.30
2019-04-30T04:00:52.761Z,65.60
2019-04-30T04:03:22.069Z,65.20
2019-04-30T04:05:52.964Z,65.20
2019-04-30T04:08:29.199Z,65.20
2019-04-30T04:11:00.451Z,65.50
2019-04-30T04:13:33.030Z,65.40
2019-04-30T04:16:00.635Z,65.50
2019-04-30T04:18:30.240Z,65.40
2019-04-30T04:21:10.092Z,65.40
2019-04-30T04:23:32.755Z,65.40
2019-04-30T04:26:01.390Z,66.00
2019-04-30T04:28:30.677Z,65.30
2019-04-30T04:31:00.277Z,65.40
2019-04-30T04:33:30.855Z,65.80
2019-04-30T04:36:00.148Z,65.40
2019-04-30T04:38:30.396Z,65.40
2019-04-30T04:41:03.003Z,65.90
2019-04-30T04:43:30.751Z,65.30
2019-04-30T04:46:00.086Z,65.10
2019-04-30T04:48:29.785Z,65.40
2019-04-30T04:50:59.993Z,65.70
2019-04-30T04:53:30.509Z,65.20
2019-04-30T04:56:00.000Z,65.40
2019-04-30T04:58:30.276Z,65.30
2019-04-30T05:00:59.868Z,65.30
2019-04-30T05:03:30.637Z,65.90
2019-04-30T05:06:02.370Z,65.90
2019-04-30T05:08:30.756Z,65.40
2019-04-30T05:10:59.987Z,64.70
2019-04-30T05:13:29.380Z,65.00
2019-04-30T05:15:59.393Z,64.90
2019-04-30T05:18:29.142Z,65.60
2019-04-30T05:20:59.000Z,65.80
2019-04-30T05:23:29.858Z,65.20
2019-04-30T05:25:59.239Z,65.10
2019-04-30T05:28:30.294Z,65.10
2019-04-30T05:30:59.560Z,65.80
2019-04-30T05:33:28.917Z,65.00
2019-04-30T05:35:59.430Z,65.70
2019-04-30T05:38:28.717Z,64.80
2019-04-30T05:40:59.634Z,65.50
2019-04-30T05:43:29.055Z,65.00
2019-04-30T05:45:58.768Z,65.10
2019-04-30T05:48:28.654Z,65.50
2019-04-30T05:50:59.117Z,64.80
2019-04-30T05:53:28.785Z,65.60
2019-04-30T05:55:59.317Z,65.50
2019-04-30T05:58:29.939Z,65.10
2019-04-30T06:00:59.855Z,64.90
2019-04-30T06:03:32.808Z,65.80
2019-04-30T06:05:59.867Z,65.30
2019-04-30T06:08:30.588Z,65.00
2019-04-30T06:11:10.603Z,65.00
2019-04-30T06:13:58.869Z,65.00
2019-04-30T06:16:29.887Z,64.90
2019-04-30T06:18:59.207Z,64.50
2019-04-30T06:21:29.469Z,65.20
2019-04-30T06:23:59.163Z,64.40
2019-04-30T06:26:29.538Z,64.80
2019-04-30T06:28:59.300Z,64.50
2019-04-30T06:31:34.851Z,63.50
2019-04-30T06:33:59.272Z,64.00
2019-04-30T06:36:28.668Z,63.00
2019-04-30T06:38:58.962Z,62.90
2019-04-30T06:41:29.586Z,63.40
2019-04-30T06:43:58.926Z,62.00
2019-04-30T06:46:28.646Z,62.40
2019-04-30T06:48:59.511Z,62.60
2019-04-30T06:51:30.529Z,61.60
2019-04-30T06:53:59.768Z,61.00
2019-04-30T06:56:29.006Z,61.10
2019-04-30T06:58:59.057Z,61.00
2019-04-30T07:01:29.054Z,60.90
2019-04-30T07:04:00.801Z,61.20
2019-04-30T07:06:32.315Z,60.10
2019-04-30T07:09:08.835Z,60.70
2019-04-30T07:11:49.361Z,59.70
2019-04-30T07:14:19.521Z,59.60
2019-04-30T07:16:49.489Z,60.40
2019-04-30T07:19:29.937Z,59.80
2019-04-30T07:21:49.749Z,59.60
2019-04-30T07:24:20.772Z,59.30
2019-04-30T07:26:49.739Z,59.80
2019-04-30T07:29:19.650Z,58.80
2019-04-30T07:31:48.998Z,58.50
2019-04-30T07:34:19.810Z,58.60
2019-04-30T07:37:02.202Z,59.30
2019-04-30T07:39:23.386Z,58.90
2019-04-30T07:41:50.606Z,58.60
2019-04-30T07:44:32.626Z,58.70
2019-04-30T07:49:20.493Z,57.30
2019-04-30T07:51:51.734Z,57.70
2019-04-30T07:54:21.044Z,57.40
2019-04-30T07:56:50.823Z,57.10
2019-04-30T07:59:20.290Z,56.90
2019-04-30T08:02:03.162Z,57.10
2019-04-30T08:04:29.274Z,56.70
2019-04-30T08:07:00.357Z,56.00
2019-04-30T08:09:38.648Z,56.20
2019-04-30T08:12:00.389Z,55.60
2019-04-30T08:14:29.517Z,55.80
2019-04-30T08:16:59.031Z,55.40
2019-04-30T08:19:28.742Z,55.80
2019-04-30T08:21:58.608Z,54.90
2019-04-30T08:24:29.182Z,55.60
2019-04-30T08:29:29.479Z,55.40
2019-04-30T08:31:59.379Z,55.60
2019-04-30T08:34:29.224Z,55.90
2019-04-30T08:36:59.478Z,55.60
2019-04-30T08:39:29.436Z,54.70
2019-04-30T08:42:00.051Z,52.60
2019-04-30T08:44:29.626Z,52.10
2019-04-30T08:46:59.134Z,53.10
2019-04-30T08:49:30.559Z,51.80
2019-04-30T08:51:59.220Z,50.80
2019-04-30T08:54:29.487Z,50.70
2019-04-30T08:56:59.446Z,48.50
2019-04-30T08:59:29.442Z,47.50
2019-04-30T09:02:00.090Z,47.10
2019-04-30T09:04:29.714Z,47.00
2019-04-30T09:06:59.981Z,46.50
2019-04-30T09:09:29.624Z,46.40
2019-04-30T09:11:59.290Z,48.40
2019-04-30T09:14:29.810Z,47.40
2019-04-30T09:16:59.615Z,46.90
2019-04-30T09:19:29.812Z,47.00
2019-04-30T09:21:59.339Z,47.60
2019-04-30T09:24:30.777Z,47.30
2019-04-30T09:26:59.372Z,47.60
2019-04-30T09:29:29.401Z,47.30
2019-04-30T09:31:59.391Z,46.20
2019-04-30T09:34:29.198Z,45.30
2019-04-30T09:36:59.204Z,45.40
2019-04-30T09:39:29.522Z,41.30
2019-04-30T09:41:59.589Z,41.40
2019-04-30T09:44:30.721Z,41.70
2019-04-30T09:46:59.738Z,42.10
2019-04-30T09:49:29.449Z,42.00
2019-04-30T09:51:59.556Z,40.90
2019-04-30T09:54:29.827Z,38.90
2019-04-30T09:56:59.442Z,39.00
2019-04-30T09:59:29.188Z,38.90
2019-04-30T10:01:58.522Z,39.30
2019-04-30T10:04:30.063Z,36.80
2019-04-30T10:06:59.548Z,35.20
2019-04-30T10:09:29.351Z,35.70
2019-04-30T10:12:00.136Z,35.80
2019-04-30T10:14:29.269Z,36.10
2019-04-30T10:17:00.037Z,36.30
2019-04-30T10:19:29.351Z,36.10
2019-04-30T10:21:58.991Z,36.90
2019-04-30T10:24:29.493Z,36.80
2019-04-30T10:26:58.927Z,36.10
2019-04-30T10:29:28.130Z,34.40
2019-04-30T10:31:58.786Z,34.90
2019-04-30T10:34:28.240Z,35.80
2019-04-30T10:36:59.616Z,35.60
2019-04-30T10:39:29.705Z,36.00
2019-04-30T10:41:58.944Z,35.50
2019-04-30T10:44:29.826Z,34.50
2019-04-30T10:46:59.410Z,34.40
2019-04-30T10:49:29.170Z,33.50
2019-04-30T10:51:59.402Z,32.80
2019-04-30T10:54:29.343Z,31.60
2019-04-30T10:56:59.145Z,32.00
2019-04-30T10:59:28.714Z,32.60
2019-04-30T11:01:59.174Z,32.80
2019-04-30T11:04:28.500Z,34.00
2019-04-30T11:07:00.062Z,34.00
2019-04-30T11:09:31.028Z,36.00
2019-04-30T11:12:03.059Z,35.20
2019-04-30T11:14:31.535Z,35.60
2019-04-30T11:17:01.082Z,34.60
2019-04-30T11:19:30.593Z,33.70
2019-04-30T11:22:00.104Z,34.90
2019-04-30T11:24:36.602Z,33.60
2019-04-30T11:27:01.162Z,32.60
2019-04-30T11:29:31.049Z,31.30
2019-04-30T11:32:02.035Z,30.90
2019-04-30T11:34:31.452Z,30.50
2019-04-30T11:37:00.725Z,31.60
2019-04-30T11:39:29.939Z,31.90
2019-04-30T11:41:59.249Z,31.50
2019-04-30T11:44:31.478Z,31.10
2019-04-30T11:47:02.639Z,30.70
2019-04-30T11:49:31.757Z,30.60
2019-04-30T11:52:01.305Z,30.80
2019-04-30T11:54:30.531Z,30.80
2019-04-30T11:56:59.730Z,30.10
2019-04-30T11:59:29.729Z,29.80
2019-04-30T12:02:00.620Z,30.20
2019-04-30T12:04:30.034Z,30.10
2019-04-30T12:07:00.681Z,30.40
2019-04-30T12:09:40.747Z,30.30
2019-04-30T12:12:10.052Z,29.90
2019-04-30T12:14:39.613Z,29.60
2019-04-30T12:17:09.171Z,29.20
2019-04-30T12:19:38.873Z,29.30
2019-04-30T12:22:08.239Z,29.70
2019-04-30T12:24:38.818Z,29.80
2019-04-30T12:27:08.333Z,29.40
2019-04-30T12:29:39.640Z,28.60
2019-04-30T12:32:08.463Z,29.10
2019-04-30T12:34:37.708Z,28.40
2019-04-30T12:37:06.859Z,28.90
2019-04-30T12:39:36.338Z,28.40
2019-04-30T12:42:05.480Z,28.70
2019-04-30T12:44:34.653Z,28.80
2019-04-30T12:47:04.424Z,28.10
2019-04-30T12:49:44.315Z,27.30
2019-04-30T12:52:30.193Z,28.10
2019-04-30T12:55:01.036Z,26.90
2019-04-30T12:57:31.770Z,27.10
2019-04-30T13:00:00.780Z,28.00
2019-04-30T13:02:31.507Z,28.00
2019-04-30T13:05:00.882Z,28.10
2019-04-30T13:07:30.871Z,27.70
2019-04-30T13:10:02.164Z,28.40
2019-04-30T13:12:32.240Z,28.70
2019-04-30T13:15:01.966Z,28.50
2019-04-30T13:17:31.501Z,27.60
2019-04-30T13:20:00.550Z,27.20
2019-04-30T13:22:29.872Z,28.00
2019-04-30T13:24:59.743Z,27.50
2019-04-30T13:27:30.689Z,27.50
2019-04-30T13:30:10.249Z,26.80
2019-04-30T13:32:41.352Z,25.50
2019-04-30T13:35:10.631Z,26.70
2019-04-30T13:37:44.578Z,26.20
2019-04-30T13:40:20.111Z,26.70
2019-04-30T13:42:52.969Z,26.20
2019-04-30T13:45:22.316Z,27.30
2019-04-30T13:47:51.620Z,27.40
2019-04-30T13:50:21.536Z,27.00
2019-04-30T13:52:50.738Z,27.40
2019-04-30T13:55:19.882Z,27.70
2019-04-30T13:57:49.154Z,27.10
2019-04-30T14:00:19.829Z,27.80
2019-04-30T14:02:50.468Z,28.00
2019-04-30T14:05:19.849Z,28.50
2019-04-30T14:07:53.457Z,28.70
2019-04-30T14:10:22.426Z,28.80
2019-04-30T14:12:53.051Z,28.70
2019-04-30T14:15:22.277Z,28.90
2019-04-30T14:17:51.613Z,28.50
2019-04-30T14:20:21.093Z,28.00
2019-04-30T14:22:50.162Z,28.20
2019-04-30T14:25:19.163Z,27.90
2019-04-30T14:27:52.235Z,27.80
2019-04-30T14:30:19.202Z,28.10
2019-04-30T14:32:50.614Z,28.10
2019-04-30T14:35:19.428Z,27.40
2019-04-30T14:37:49.659Z,28.30
2019-04-30T14:40:22.407Z,28.00
2019-04-30T14:42:56.836Z,28.20
2019-04-30T14:45:31.462Z,28.20
2019-04-30T14:48:08.888Z,29.00
2019-04-30T14:50:38.615Z,29.60
2019-04-30T14:53:18.279Z,30.00
2019-04-30T14:56:09.494Z,30.70
2019-04-30T14:58:49.559Z,30.90
2019-04-30T15:01:26.326Z,31.10
2019-04-30T15:03:55.336Z,31.30
2019-04-30T15:06:24.573Z,32.20
2019-04-30T15:08:53.771Z,31.90
2019-04-30T15:11:22.964Z,31.40
2019-04-30T15:13:52.184Z,32.20
2019-04-30T15:16:21.473Z,32.40
2019-04-30T15:18:50.694Z,32.20
2019-04-30T15:21:20.012Z,33.10
2019-04-30T15:23:58.719Z,33.90
2019-04-30T15:26:22.918Z,34.50
2019-04-30T15:28:52.525Z,34.20
2019-04-30T15:31:21.887Z,35.20
2019-04-30T15:34:02.962Z,34.90
2019-04-30T15:36:29.343Z,35.50
2019-04-30T15:39:03.339Z,36.70
2019-04-30T15:41:32.551Z,36.70
2019-04-30T15:44:02.725Z,36.90
2019-04-30T15:46:32.028Z,37.60
2019-04-30T15:49:01.302Z,37.60
2019-04-30T15:51:30.583Z,38.60
2019-04-30T15:53:59.683Z,38.10
2019-04-30T15:56:37.050Z,38.60
2019-04-30T15:59:10.178Z,38.50
2019-04-30T16:01:41.011Z,38.80
2019-04-30T16:04:11.805Z,39.30
2019-04-30T16:06:41.012Z,39.70
2019-04-30T16:09:15.180Z,39.30
2019-04-30T16:11:49.213Z,39.20
2019-04-30T16:14:35.948Z,39.80
2019-04-30T16:17:06.665Z,39.80
2019-04-30T16:19:36.101Z,38.80
2019-04-30T16:22:05.542Z,39.70
2019-04-30T16:24:34.644Z,39.30
2019-04-30T16:27:04.046Z,40.00
2019-04-30T16:29:33.293Z,39.80
2019-04-30T16:32:02.449Z,39.50
2019-04-30T16:34:39.860Z,40.10
2019-04-30T16:37:08.437Z,40.20
2019-04-30T16:39:39.675Z,39.70
2019-04-30T16:42:09.105Z,40.40
2019-04-30T16:44:38.309Z,39.60
2019-04-30T16:49:38.778Z,39.40
2019-04-30T16:52:09.209Z,40.40
2019-04-30T16:54:39.514Z,39.90
2019-04-30T16:57:10.298Z,40.40
2019-04-30T16:59:43.073Z,41.40
2019-04-30T17:02:13.081Z,41.40
2019-04-30T17:04:49.758Z,41.30
2019-04-30T17:07:29.300Z,41.90
2019-04-30T17:10:00.176Z,41.60
2019-04-30T17:12:33.808Z,42.80
2019-04-30T17:15:19.935Z,42.60
2019-04-30T17:17:49.748Z,42.30
2019-04-30T17:20:20.869Z,42.90
2019-04-30T17:22:50.497Z,42.40
2019-04-30T17:25:19.787Z,42.50
2019-04-30T17:27:49.084Z,42.80
2019-04-30T17:30:19.330Z,43.00
2019-04-30T17:32:49.898Z,43.20
2019-04-30T17:35:19.297Z,43.50
2019-04-30T17:37:48.860Z,43.70
2019-04-30T17:40:19.232Z,44.20
2019-04-30T17:42:48.382Z,44.30
2019-04-30T17:45:19.382Z,43.60
2019-04-30T17:47:48.341Z,44.20
2019-04-30T17:50:18.769Z,43.50
2019-04-30T17:52:48.108Z,43.40
2019-04-30T17:55:19.354Z,43.70
2019-04-30T17:57:48.716Z,43.80
2019-04-30T18:00:22.060Z,44.50
2019-04-30T18:02:49.072Z,44.30
2019-04-30T18:05:19.441Z,44.10
2019-04-30T18:07:49.769Z,45.10
2019-04-30T18:12:49.466Z,44.40
2019-04-30T18:15:20.286Z,44.60
2019-04-30T18:17:51.082Z,44.80
2019-04-30T18:20:34.479Z,44.70
2019-04-30T18:23:21.487Z,45.40
2019-04-30T18:25:52.229Z,46.40
2019-04-30T18:28:21.477Z,45.60
2019-04-30T18:30:50.888Z,45.00
2019-04-30T18:33:20.195Z,45.10
2019-04-30T18:35:49.501Z,45.50
2019-04-30T18:38:19.003Z,45.40
2019-04-30T18:40:49.555Z,45.60
2019-04-30T18:43:20.673Z,45.80
2019-04-30T18:45:51.629Z,45.70
2019-04-30T18:48:21.139Z,46.10
2019-04-30T18:50:50.896Z,46.60
2019-04-30T18:53:22.719Z,46.20
2019-04-30T18:55:53.877Z,46.50
2019-04-30T18:58:37.538Z,46.20
2019-04-30T19:00:59.264Z,47.60
2019-04-30T19:03:39.939Z,46.50
2019-04-30T19:06:23.740Z,47.10
2019-04-30T19:09:12.174Z,46.90
2019-04-30T19:12:05.160Z,48.10
2019-04-30T19:14:43.061Z,48.10
2019-04-30T19:17:29.625Z,47.30
2019-04-30T19:20:21.545Z,47.80
2019-04-30T19:22:56.048Z,48.10
2019-04-30T19:25:30.587Z,47.80
2019-04-30T19:28:12.151Z,48.00
2019-04-30T19:30:55.023Z,48.70
2019-04-30T19:33:21.577Z,48.40
2019-04-30T19:35:58.555Z,48.70
2019-04-30T19:38:33.236Z,49.40
2019-04-30T19:41:06.230Z,48.60
2019-04-30T19:43:41.657Z,49.70
2019-04-30T19:47:09.297Z,49.60
2019-04-30T19:49:48.882Z,51.70
2019-04-30T19:52:25.222Z,49.60
2019-04-30T19:55:00.390Z,49.90
2019-04-30T19:57:39.867Z,50.30
2019-04-30T20:02:57.151Z,50.80
2019-04-30T20:05:30.947Z,51.30
2019-04-30T20:08:10.821Z,51.40
2019-04-30T20:10:44.756Z,50.90
2019-04-30T20:13:31.220Z,51.20
2019-04-30T20:15:56.082Z,51.40
2019-04-30T20:18:32.411Z,51.40
2019-04-30T20:21:09.069Z,51.90
2019-04-30T20:23:46.867Z,51.90
2019-04-30T20:26:26.137Z,52.70
2019-04-30T20:29:01.453Z,52.10
2019-04-30T20:31:36.373Z,52.10
2019-04-30T20:34:13.597Z,52.20
2019-04-30T20:36:47.933Z,52.00
2019-04-30T20:39:32.549Z,52.10
2019-04-30T20:42:02.916Z,52.70
2019-04-30T20:44:34.174Z,53.30
2019-04-30T20:47:06.496Z,52.50
2019-04-30T20:49:46.443Z,52.70
2019-04-30T20:52:20.731Z,52.80
2019-04-30T20:54:55.925Z,53.00
2019-04-30T20:57:29.542Z,53.40
2019-04-30T21:00:03.304Z,53.30
2019-04-30T21:02:34.786Z,53.60
2019-04-30T21:05:07.487Z,53.90
2019-04-30T21:07:42.180Z,54.00
2019-04-30T21:10:19.928Z,54.00
2019-04-30T21:12:50.586Z,54.10
2019-04-30T21:15:20.342Z,54.00
2019-04-30T21:17:50.833Z,54.60
2019-04-30T21:20:22.946Z,54.50
2019-04-30T21:22:52.753Z,55.20
2019-04-30T21:25:22.341Z,54.60
2019-04-30T21:27:51.942Z,54.00
2019-04-30T21:30:21.287Z,55.00
2019-04-30T21:32:51.975Z,54.70
2019-04-30T21:35:25.960Z,54.70
2019-04-30T21:37:56.868Z,54.70
2019-04-30T21:40:26.465Z,55.30
2019-04-30T21:42:55.797Z,54.50
2019-04-30T21:45:25.127Z,55.00
2019-04-30T21:47:56.376Z,55.10
2019-04-30T21:53:53.259Z,57.00
2019-04-30T21:56:22.455Z,55.90
2019-04-30T21:58:51.666Z,56.10
2019-04-30T22:01:24.536Z,56.80
2019-04-30T22:03:53.631Z,56.70
2019-04-30T22:06:24.374Z,57.60
2019-04-30T22:08:53.528Z,56.50
2019-04-30T22:11:22.726Z,56.10
2019-04-30T22:13:51.879Z,56.10
2019-04-30T22:16:21.204Z,55.40
2019-04-30T22:18:50.487Z,56.70
2019-04-30T22:21:19.591Z,56.50
2019-04-30T22:23:48.814Z,57.40
2019-04-30T22:26:17.907Z,58.00
2019-04-30T22:28:47.039Z,58.40
2019-04-30T22:31:16.136Z,57.60
2019-04-30T22:33:45.381Z,57.80
2019-04-30T22:36:16.150Z,57.10
2019-04-30T22:38:53.080Z,57.80
2019-04-30T22:41:29.794Z,58.00
2019-04-30T22:43:59.086Z,57.80
2019-04-30T22:46:29.382Z,57.60
2019-04-30T22:48:58.650Z,58.20
2019-04-30T22:51:27.887Z,59.00
2019-04-30T22:53:57.200Z,59.30
2019-04-30T22:56:26.437Z,58.60
2019-04-30T22:58:55.678Z,58.90
2019-04-30T23:01:35.536Z,59.00
2019-04-30T23:04:09.234Z,59.50
2019-04-30T23:06:38.530Z,59.50
2019-04-30T23:09:08.426Z,59.60
2019-04-30T23:11:37.680Z,58.80
2019-04-30T23:14:06.891Z,59.40
2019-04-30T23:16:36.067Z,59.00
2019-04-30T23:19:05.242Z,60.50
2019-04-30T23:21:34.376Z,59.70
2019-04-30T23:24:03.562Z,59.00
2019-04-30T23:26:32.593Z,59.60
2019-04-30T23:29:01.854Z,59.50
2019-04-30T23:31:31.074Z,59.70
2019-04-30T23:34:00.251Z,60.80
2019-04-30T23:36:29.459Z,60.20
2019-04-30T23:38:58.718Z,60.70
2019-04-30T23:41:27.958Z,60.70
2019-04-30T23:43:57.094Z,60.50
2019-04-30T23:46:26.412Z,60.00
2019-04-30T23:48:55.688Z,60.00
2019-04-30T23:51:25.102Z,61.70
2019-04-30T23:53:54.278Z,60.40
2019-04-30T23:56:26.175Z,60.80
2019-04-30T23:58:55.421Z,61.10
